Le Grand, Iowa
Current Conditions -  °F | °C
As of 7:53 PM on Monday 22 Dec 2014 (Local Time) from KMIW Reporting Station
Light Rain Light Rain  
Wind Chill: 28°   Ceiling: 200
Heat Index: 36°   Visibility: 0.5mi
Dew Point: 36°   Wind: 10mph
Humidity: 100%   Direction: 90°E
Pressure: 29.48"   Gusts: NA
Location:  42.01°N, 92.78°W
Report Text: KMIW 230153Z AUTO 09009KT 1/2SM -RA FG VV002 02/02 A2948 RMK AO2 UPB48E52RAB52 SLP989 P0001 T00220022
Loading
Personal Weather Stations






























Interactive Weather Map New forecast layout! Learn more

10-Day Weather Forecast

Advertisements
Track Severe Weather on mobile